createdAt,value
2023-04-25T00:08:31.328Z,1.90
2023-04-25T00:23:34.047Z,1.70
2023-04-25T00:38:36.892Z,1.60
2023-04-25T01:08:42.377Z,1.50
2023-04-25T01:23:47.629Z,1.30
2023-04-25T01:38:51.421Z,1.60
2023-04-25T01:53:55.104Z,2.00
2023-04-25T02:08:57.784Z,2.60
2023-04-25T02:24:00.940Z,2.60
2023-04-25T02:39:04.100Z,3.40
2023-04-25T02:54:07.605Z,3.30
2023-04-25T03:09:10.296Z,3.70
2023-04-25T03:24:13.409Z,3.50
2023-04-25T03:39:16.912Z,3.90
2023-04-25T03:54:19.563Z,5.00
2023-04-25T04:09:22.395Z,5.10
2023-04-25T04:39:30.296Z,6.40
2023-04-25T04:54:33.073Z,7.10
2023-04-25T05:24:38.331Z,5.70
2023-04-25T05:39:40.909Z,5.50
2023-04-25T05:54:43.807Z,4.90
2023-04-25T06:09:47.030Z,4.90
2023-04-25T06:24:49.707Z,3.70
2023-04-25T06:54:55.096Z,4.50
2023-04-25T07:09:57.814Z,3.20
2023-04-25T07:25:00.536Z,2.80
2023-04-25T07:40:04.976Z,4.00
2023-04-25T07:55:07.899Z,3.60
2023-04-25T08:10:12.207Z,3.50
2023-04-25T08:25:15.211Z,4.40
2023-04-25T08:40:18.147Z,5.30
2023-04-25T08:55:22.460Z,5.00
2023-04-25T09:10:25.525Z,6.70
2023-04-25T09:25:35.526Z,4.80
2023-04-25T09:40:46.331Z,5.30
2023-04-25T09:55:49.334Z,6.70
2023-04-25T10:10:52.111Z,5.30
2023-04-25T10:25:55.826Z,5.00
2023-04-25T10:41:12.390Z,4.50
2023-04-25T10:56:21.529Z,3.70
2023-04-25T11:11:24.931Z,3.90
2023-04-25T11:26:27.738Z,4.30
2023-04-25T11:41:31.503Z,2.90
2023-04-25T11:56:34.495Z,2.30
2023-04-25T12:11:48.344Z,2.00
2023-04-25T12:27:00.807Z,2.40
2023-04-25T12:42:05.570Z,2.10
2023-04-25T12:57:10.239Z,2.00
2023-04-25T13:12:12.881Z,2.00
2023-04-25T13:42:18.477Z,2.20
2023-04-25T13:57:21.588Z,2.20
2023-04-25T14:12:25.022Z,2.20
2023-04-25T14:27:29.334Z,2.20
2023-04-25T14:42:34.077Z,2.30
2023-04-25T14:57:36.690Z,2.30
2023-04-25T15:42:51.519Z,2.50
2023-04-25T15:57:54.264Z,3.10
2023-04-25T16:12:57.050Z,3.20
2023-04-25T16:58:05.047Z,3.20
2023-04-25T17:13:08.696Z,2.50
2023-04-25T17:28:11.493Z,3.70
2023-04-25T17:43:14.143Z,4.10
2023-04-25T17:58:17.500Z,3.90
2023-04-25T18:13:20.210Z,3.90
2023-04-25T18:28:29.622Z,4.20
2023-04-25T18:58:35.295Z,4.90
2023-04-25T19:13:38.170Z,21.70
2023-04-25T19:43:45.629Z,28.20
2023-04-25T20:13:51.491Z,22.70
2023-04-25T20:28:55.489Z,11.70
2023-04-25T20:43:58.553Z,13.40
2023-04-25T20:59:01.374Z,10.60
2023-04-25T21:29:08.025Z,7.50
2023-04-25T21:44:12.587Z,6.10
2023-04-25T21:59:15.284Z,5.40
2023-04-25T22:14:18.268Z,5.70
2023-04-25T22:44:24.107Z,6.10
2023-04-25T22:59:27.122Z,5.90
2023-04-25T23:14:29.974Z,5.90
2023-04-25T23:29:34.222Z,5.70
2023-04-25T23:44:37.002Z,6.60
2023-04-25T23:59:39.628Z,7.70
